sensor_id;sensor_type;location;lat;lon;timestamp;P1;durP1;ratioP1;P2;durP2;ratioP2
7511;SDS011;9999;48.780;9.146;2023-04-09T00:02:18;10.03;;;5.30;;
7511;SDS011;9999;48.780;9.146;2023-04-09T00:04:45;7.33;;;5.20;;
7511;SDS011;9999;48.780;9.146;2023-04-09T00:07:12;10.00;;;6.30;;
7511;SDS011;9999;48.780;9.146;2023-04-09T00:09:38;8.50;;;5.47;;
7511;SDS011;9999;48.780;9.146;2023-04-09T00:12:05;9.97;;;6.43;;
7511;SDS011;9999;48.780;9.146;2023-04-09T00:14:32;7.20;;;5.20;;
7511;SDS011;9999;48.780;9.146;2023-04-09T00:17:00;8.37;;;6.37;;
7511;SDS011;9999;48.780;9.146;2023-04-09T00:19:27;8.07;;;5.70;;
7511;SDS011;9999;48.780;9.146;2023-04-09T00:21:54;9.10;;;5.70;;
7511;SDS011;9999;48.780;9.146;2023-04-09T00:24:21;7.77;;;5.43;;
7511;SDS011;9999;48.780;9.146;2023-04-09T00:26:48;9.83;;;5.83;;
7511;SDS011;9999;48.780;9.146;2023-04-09T00:29:14;8.27;;;5.70;;
7511;SDS011;9999;48.780;9.146;2023-04-09T00:31:41;8.97;;;5.60;;
7511;SDS011;9999;48.780;9.146;2023-04-09T00:34:09;9.73;;;5.30;;
7511;SDS011;9999;48.780;9.146;2023-04-09T00:36:36;10.77;;;5.63;;
7511;SDS011;9999;48.780;9.146;2023-04-09T00:39:03;8.97;;;5.57;;
7511;SDS011;9999;48.780;9.146;2023-04-09T00:41:29;7.00;;;5.13;;
7511;SDS011;9999;48.780;9.146;2023-04-09T00:43:56;8.20;;;5.60;;
7511;SDS011;9999;48.780;9.146;2023-04-09T00:46:23;8.63;;;5.43;;
7511;SDS011;9999;48.780;9.146;2023-04-09T00:48:50;9.23;;;5.50;;
7511;SDS011;9999;48.780;9.146;2023-04-09T00:51:18;6.63;;;4.73;;
7511;SDS011;9999;48.780;9.146;2023-04-09T00:53:45;7.93;;;5.27;;
7511;SDS011;9999;48.780;9.146;2023-04-09T00:56:12;9.10;;;5.60;;
7511;SDS011;9999;48.780;9.146;2023-04-09T00:58:42;7.37;;;5.17;;
7511;SDS011;9999;48.780;9.146;2023-04-09T01:01:09;7.87;;;5.17;;
7511;SDS011;9999;48.780;9.146;2023-04-09T01:03:35;6.53;;;5.77;;
7511;SDS011;9999;48.780;9.146;2023-04-09T01:06:05;7.50;;;5.53;;
7511;SDS011;9999;48.780;9.146;2023-04-09T01:08:44;9.23;;;5.87;;
7511;SDS011;9999;48.780;9.146;2023-04-09T01:11:19;9.10;;;5.60;;
7511;SDS011;9999;48.780;9.146;2023-04-09T01:13:58;9.13;;;5.83;;
7511;SDS011;9999;48.780;9.146;2023-04-09T01:16:31;10.23;;;6.37;;
7511;SDS011;9999;48.780;9.146;2023-04-09T01:19:05;8.37;;;5.60;;
7511;SDS011;9999;48.780;9.146;2023-04-09T01:21:40;8.53;;;5.77;;
7511;SDS011;9999;48.780;9.146;2023-04-09T01:24:15;9.63;;;5.60;;
7511;SDS011;9999;48.780;9.146;2023-04-09T01:26:54;9.60;;;6.47;;
7511;SDS011;9999;48.780;9.146;2023-04-09T01:29:34;9.20;;;5.53;;
7511;SDS011;9999;48.780;9.146;2023-04-09T01:32:06;10.77;;;5.87;;
7511;SDS011;9999;48.780;9.146;2023-04-09T01:34:34;8.53;;;5.77;;
7511;SDS011;9999;48.780;9.146;2023-04-09T01:37:03;8.70;;;6.03;;
7511;SDS011;9999;48.780;9.146;2023-04-09T01:39:31;10.50;;;6.63;;
7511;SDS011;9999;48.780;9.146;2023-04-09T01:41:58;8.60;;;6.17;;
7511;SDS011;9999;48.780;9.146;2023-04-09T01:44:27;6.60;;;5.50;;
7511;SDS011;9999;48.780;9.146;2023-04-09T01:46:57;11.10;;;6.60;;
7511;SDS011;9999;48.780;9.146;2023-04-09T01:49:25;10.87;;;6.23;;
7511;SDS011;9999;48.780;9.146;2023-04-09T01:51:53;6.90;;;5.43;;
7511;SDS011;9999;48.780;9.146;2023-04-09T01:54:20;8.73;;;6.50;;
7511;SDS011;9999;48.780;9.146;2023-04-09T01:56:47;9.13;;;5.37;;
7511;SDS011;9999;48.780;9.146;2023-04-09T01:59:14;9.87;;;6.77;;
7511;SDS011;9999;48.780;9.146;2023-04-09T02:01:43;8.00;;;5.80;;
7511;SDS011;9999;48.780;9.146;2023-04-09T02:04:15;8.30;;;6.07;;
7511;SDS011;9999;48.780;9.146;2023-04-09T02:06:50;10.90;;;5.90;;
7511;SDS011;9999;48.780;9.146;2023-04-09T02:09:23;9.10;;;5.87;;
7511;SDS011;9999;48.780;9.146;2023-04-09T02:11:52;8.00;;;5.93;;
7511;SDS011;9999;48.780;9.146;2023-04-09T02:14:22;9.40;;;5.40;;
7511;SDS011;9999;48.780;9.146;2023-04-09T02:16:51;9.03;;;6.47;;
7511;SDS011;9999;48.780;9.146;2023-04-09T02:19:20;10.40;;;6.10;;
7511;SDS011;9999;48.780;9.146;2023-04-09T02:21:46;7.57;;;5.60;;
7511;SDS011;9999;48.780;9.146;2023-04-09T02:24:13;9.93;;;6.00;;
7511;SDS011;9999;48.780;9.146;2023-04-09T02:26:40;7.03;;;5.50;;
7511;SDS011;9999;48.780;9.146;2023-04-09T02:29:07;10.30;;;6.20;;
7511;SDS011;9999;48.780;9.146;2023-04-09T02:31:33;8.10;;;5.47;;
7511;SDS011;9999;48.780;9.146;2023-04-09T02:34:00;9.70;;;6.37;;
7511;SDS011;9999;48.780;9.146;2023-04-09T02:36:28;7.43;;;6.07;;
7511;SDS011;9999;48.780;9.146;2023-04-09T02:38:55;9.77;;;6.40;;
7511;SDS011;9999;48.780;9.146;2023-04-09T02:41:22;9.30;;;6.40;;
7511;SDS011;9999;48.780;9.146;2023-04-09T02:43:50;10.40;;;5.97;;
7511;SDS011;9999;48.780;9.146;2023-04-09T02:46:16;9.33;;;6.20;;
7511;SDS011;9999;48.780;9.146;2023-04-09T02:48:43;9.13;;;6.30;;
7511;SDS011;9999;48.780;9.146;2023-04-09T02:51:10;7.77;;;6.00;;
7511;SDS011;9999;48.780;9.146;2023-04-09T02:53:38;8.33;;;6.00;;
7511;SDS011;9999;48.780;9.146;2023-04-09T02:56:05;7.23;;;6.10;;
7511;SDS011;9999;48.780;9.146;2023-04-09T02:58:32;7.67;;;5.97;;
7511;SDS011;9999;48.780;9.146;2023-04-09T03:01:02;9.20;;;6.03;;
7511;SDS011;9999;48.780;9.146;2023-04-09T03:03:29;8.30;;;6.03;;
7511;SDS011;9999;48.780;9.146;2023-04-09T03:05:56;7.57;;;5.80;;
7511;SDS011;9999;48.780;9.146;2023-04-09T03:08:22;8.80;;;5.73;;
7511;SDS011;9999;48.780;9.146;2023-04-09T03:10:51;8.30;;;6.47;;
7511;SDS011;9999;48.780;9.146;2023-04-09T03:13:17;10.37;;;5.97;;
7511;SDS011;9999;48.780;9.146;2023-04-09T03:15:44;12.30;;;6.20;;
7511;SDS011;9999;48.780;9.146;2023-04-09T03:18:11;8.50;;;5.47;;
7511;SDS011;9999;48.780;9.146;2023-04-09T03:20:38;41.67;;;24.77;;
7511;SDS011;9999;48.780;9.146;2023-04-09T03:23:07;9.70;;;6.77;;
7511;SDS011;9999;48.780;9.146;2023-04-09T03:25:38;10.90;;;6.80;;
7511;SDS011;9999;48.780;9.146;2023-04-09T03:28:17;9.27;;;6.13;;
7511;SDS011;9999;48.780;9.146;2023-04-09T03:30:48;11.03;;;7.30;;
7511;SDS011;9999;48.780;9.146;2023-04-09T03:33:14;9.43;;;6.40;;
7511;SDS011;9999;48.780;9.146;2023-04-09T03:35:49;8.40;;;6.23;;
7511;SDS011;9999;48.780;9.146;2023-04-09T03:38:22;9.70;;;5.63;;
7511;SDS011;9999;48.780;9.146;2023-04-09T03:40:49;12.20;;;6.33;;
7511;SDS011;9999;48.780;9.146;2023-04-09T03:43:15;8.30;;;6.50;;
7511;SDS011;9999;48.780;9.146;2023-04-09T03:45:48;8.43;;;5.83;;
7511;SDS011;9999;48.780;9.146;2023-04-09T03:48:20;10.07;;;6.90;;
7511;SDS011;9999;48.780;9.146;2023-04-09T03:50:48;10.17;;;6.50;;
7511;SDS011;9999;48.780;9.146;2023-04-09T03:53:22;9.50;;;6.40;;
7511;SDS011;9999;48.780;9.146;2023-04-09T03:55:48;10.63;;;6.03;;
7511;SDS011;9999;48.780;9.146;2023-04-09T03:58:22;10.23;;;6.97;;
7511;SDS011;9999;48.780;9.146;2023-04-09T04:00:50;11.80;;;6.53;;
7511;SDS011;9999;48.780;9.146;2023-04-09T04:03:38;7.97;;;5.20;;
7511;SDS011;9999;48.780;9.146;2023-04-09T04:06:22;10.10;;;6.73;;
7511;SDS011;9999;48.780;9.146;2023-04-09T04:08:58;8.07;;;6.17;;
7511;SDS011;9999;48.780;9.146;2023-04-09T04:11:34;13.27;;;5.97;;
7511;SDS011;9999;48.780;9.146;2023-04-09T04:14:02;11.77;;;6.10;;
7511;SDS011;9999;48.780;9.146;2023-04-09T04:16:29;10.57;;;6.30;;
7511;SDS011;9999;48.780;9.146;2023-04-09T04:18:56;9.73;;;6.33;;
7511;SDS011;9999;48.780;9.146;2023-04-09T04:21:23;8.10;;;5.90;;
7511;SDS011;9999;48.780;9.146;2023-04-09T04:23:57;9.87;;;6.50;;
7511;SDS011;9999;48.780;9.146;2023-04-09T04:26:26;14.07;;;7.33;;
7511;SDS011;9999;48.780;9.146;2023-04-09T04:28:54;10.10;;;6.20;;
7511;SDS011;9999;48.780;9.146;2023-04-09T04:31:42;8.50;;;6.97;;
7511;SDS011;9999;48.780;9.146;2023-04-09T04:34:10;8.30;;;6.30;;
7511;SDS011;9999;48.780;9.146;2023-04-09T04:36:40;8.77;;;6.43;;
7511;SDS011;9999;48.780;9.146;2023-04-09T04:39:07;8.97;;;5.53;;
7511;SDS011;9999;48.780;9.146;2023-04-09T04:41:48;9.63;;;6.93;;
7511;SDS011;9999;48.780;9.146;2023-04-09T04:44:21;12.13;;;6.57;;
7511;SDS011;9999;48.780;9.146;2023-04-09T04:46:56;8.87;;;6.23;;
7511;SDS011;9999;48.780;9.146;2023-04-09T04:49:22;9.83;;;6.20;;
7511;SDS011;9999;48.780;9.146;2023-04-09T04:51:50;7.93;;;5.87;;
7511;SDS011;9999;48.780;9.146;2023-04-09T04:54:17;9.27;;;6.27;;
7511;SDS011;9999;48.780;9.146;2023-04-09T04:56:50;10.27;;;6.73;;
7511;SDS011;9999;48.780;9.146;2023-04-09T04:59:28;9.07;;;6.23;;
7511;SDS011;9999;48.780;9.146;2023-04-09T05:02:00;8.80;;;6.53;;
7511;SDS011;9999;48.780;9.146;2023-04-09T05:04:32;11.10;;;6.70;;
7511;SDS011;9999;48.780;9.146;2023-04-09T05:06:59;7.93;;;5.57;;
7511;SDS011;9999;48.780;9.146;2023-04-09T05:09:26;9.50;;;6.43;;
7511;SDS011;9999;48.780;9.146;2023-04-09T05:12:03;9.43;;;6.03;;
7511;SDS011;9999;48.780;9.146;2023-04-09T05:14:30;9.37;;;6.43;;
7511;SDS011;9999;48.780;9.146;2023-04-09T05:16:57;10.30;;;6.87;;
7511;SDS011;9999;48.780;9.146;2023-04-09T05:19:30;9.60;;;6.63;;
7511;SDS011;9999;48.780;9.146;2023-04-09T05:22:00;9.03;;;6.40;;
7511;SDS011;9999;48.780;9.146;2023-04-09T05:24:27;11.07;;;7.33;;
7511;SDS011;9999;48.780;9.146;2023-04-09T05:26:54;9.60;;;6.50;;
7511;SDS011;9999;48.780;9.146;2023-04-09T05:29:22;8.90;;;6.60;;
7511;SDS011;9999;48.780;9.146;2023-04-09T05:31:48;12.27;;;6.43;;
7511;SDS011;9999;48.780;9.146;2023-04-09T05:34:33;9.10;;;6.70;;
7511;SDS011;9999;48.780;9.146;2023-04-09T05:37:00;11.43;;;7.87;;
7511;SDS011;9999;48.780;9.146;2023-04-09T05:39:28;11.23;;;6.27;;
7511;SDS011;9999;48.780;9.146;2023-04-09T05:41:57;10.43;;;6.43;;
7511;SDS011;9999;48.780;9.146;2023-04-09T05:44:30;9.70;;;6.20;;
7511;SDS011;9999;48.780;9.146;2023-04-09T05:47:03;12.87;;;7.70;;
7511;SDS011;9999;48.780;9.146;2023-04-09T05:49:38;9.93;;;6.53;;
7511;SDS011;9999;48.780;9.146;2023-04-09T05:52:10;9.43;;;5.87;;
7511;SDS011;9999;48.780;9.146;2023-04-09T05:54:36;10.73;;;7.57;;
7511;SDS011;9999;48.780;9.146;2023-04-09T05:57:06;10.97;;;7.47;;
7511;SDS011;9999;48.780;9.146;2023-04-09T05:59:35;9.53;;;6.30;;
7511;SDS011;9999;48.780;9.146;2023-04-09T06:02:02;14.93;;;7.33;;
7511;SDS011;9999;48.780;9.146;2023-04-09T06:04:31;8.73;;;5.90;;
7511;SDS011;9999;48.780;9.146;2023-04-09T06:07:00;13.33;;;6.97;;
7511;SDS011;9999;48.780;9.146;2023-04-09T06:09:27;9.17;;;6.23;;
7511;SDS011;9999;48.780;9.146;2023-04-09T06:11:53;13.17;;;7.10;;
7511;SDS011;9999;48.780;9.146;2023-04-09T06:14:21;11.03;;;6.40;;
7511;SDS011;9999;48.780;9.146;2023-04-09T06:16:48;8.90;;;6.37;;
7511;SDS011;9999;48.780;9.146;2023-04-09T06:19:15;11.37;;;7.03;;
7511;SDS011;9999;48.780;9.146;2023-04-09T06:21:42;10.63;;;7.50;;
7511;SDS011;9999;48.780;9.146;2023-04-09T06:24:10;13.27;;;7.53;;
7511;SDS011;9999;48.780;9.146;2023-04-09T06:26:36;10.27;;;7.13;;
7511;SDS011;9999;48.780;9.146;2023-04-09T06:29:03;11.43;;;6.03;;
7511;SDS011;9999;48.780;9.146;2023-04-09T06:31:30;12.00;;;7.50;;
7511;SDS011;9999;48.780;9.146;2023-04-09T06:33:57;10.17;;;6.20;;
7511;SDS011;9999;48.780;9.146;2023-04-09T06:36:24;9.47;;;6.10;;
7511;SDS011;9999;48.780;9.146;2023-04-09T06:38:52;9.17;;;6.67;;
7511;SDS011;9999;48.780;9.146;2023-04-09T06:41:20;8.53;;;6.27;;
7511;SDS011;9999;48.780;9.146;2023-04-09T06:43:47;10.43;;;6.20;;
7511;SDS011;9999;48.780;9.146;2023-04-09T06:46:14;8.97;;;5.93;;
7511;SDS011;9999;48.780;9.146;2023-04-09T06:48:44;14.90;;;6.37;;
7511;SDS011;9999;48.780;9.146;2023-04-09T06:51:10;7.97;;;6.00;;
7511;SDS011;9999;48.780;9.146;2023-04-09T06:53:39;10.30;;;6.87;;
7511;SDS011;9999;48.780;9.146;2023-04-09T06:56:06;8.70;;;5.77;;
7511;SDS011;9999;48.780;9.146;2023-04-09T06:58:34;9.70;;;6.40;;
7511;SDS011;9999;48.780;9.146;2023-04-09T07:01:01;13.63;;;7.33;;
7511;SDS011;9999;48.780;9.146;2023-04-09T07:03:28;9.80;;;5.80;;
7511;SDS011;9999;48.780;9.146;2023-04-09T07:05:55;8.27;;;5.47;;
7511;SDS011;9999;48.780;9.146;2023-04-09T07:08:23;9.43;;;5.57;;
7511;SDS011;9999;48.780;9.146;2023-04-09T07:10:50;12.37;;;6.30;;
7511;SDS011;9999;48.780;9.146;2023-04-09T07:13:16;11.37;;;6.20;;
7511;SDS011;9999;48.780;9.146;2023-04-09T07:15:44;9.38;;;6.03;;
7511;SDS011;9999;48.780;9.146;2023-04-09T07:18:11;8.98;;;5.43;;
7511;SDS011;9999;48.780;9.146;2023-04-09T07:20:38;9.95;;;6.03;;
7511;SDS011;9999;48.780;9.146;2023-04-09T07:23:05;7.80;;;5.45;;
7511;SDS011;9999;48.780;9.146;2023-04-09T07:25:31;8.40;;;6.35;;
7511;SDS011;9999;48.780;9.146;2023-04-09T07:27:58;8.32;;;5.85;;
7511;SDS011;9999;48.780;9.146;2023-04-09T07:30:25;6.80;;;5.18;;
7511;SDS011;9999;48.780;9.146;2023-04-09T07:32:53;8.40;;;5.95;;
7511;SDS011;9999;48.780;9.146;2023-04-09T07:35:20;9.20;;;5.78;;
7511;SDS011;9999;48.780;9.146;2023-04-09T07:37:47;9.02;;;5.35;;
7511;SDS011;9999;48.780;9.146;2023-04-09T07:40:14;5.55;;;4.10;;
7511;SDS011;9999;48.780;9.146;2023-04-09T07:42:41;7.53;;;4.72;;
7511;SDS011;9999;48.780;9.146;2023-04-09T07:45:08;7.63;;;4.63;;
7511;SDS011;9999;48.780;9.146;2023-04-09T07:47:35;5.55;;;4.25;;
7511;SDS011;9999;48.780;9.146;2023-04-09T07:50:05;6.95;;;5.22;;
7511;SDS011;9999;48.780;9.146;2023-04-09T07:52:32;7.32;;;4.55;;
7511;SDS011;9999;48.780;9.146;2023-04-09T07:54:59;7.57;;;4.63;;
7511;SDS011;9999;48.780;9.146;2023-04-09T07:57:26;7.15;;;4.22;;
7511;SDS011;9999;48.780;9.146;2023-04-09T07:59:53;7.35;;;4.28;;
7511;SDS011;9999;48.780;9.146;2023-04-09T08:02:20;5.60;;;3.72;;
7511;SDS011;9999;48.780;9.146;2023-04-09T08:04:47;6.50;;;4.32;;
7511;SDS011;9999;48.780;9.146;2023-04-09T08:07:16;6.40;;;4.03;;
7511;SDS011;9999;48.780;9.146;2023-04-09T08:09:42;5.60;;;4.50;;
7511;SDS011;9999;48.780;9.146;2023-04-09T08:12:10;5.53;;;4.13;;
7511;SDS011;9999;48.780;9.146;2023-04-09T08:14:36;6.63;;;4.00;;
7511;SDS011;9999;48.780;9.146;2023-04-09T08:17:03;6.18;;;3.88;;
7511;SDS011;9999;48.780;9.146;2023-04-09T08:19:30;8.20;;;4.55;;
7511;SDS011;9999;48.780;9.146;2023-04-09T08:21:57;5.88;;;3.60;;
7511;SDS011;9999;48.780;9.146;2023-04-09T08:24:25;6.22;;;4.25;;
7511;SDS011;9999;48.780;9.146;2023-04-09T08:26:52;6.18;;;4.15;;
7511;SDS011;9999;48.780;9.146;2023-04-09T08:29:19;5.57;;;3.72;;
7511;SDS011;9999;48.780;9.146;2023-04-09T08:31:45;5.60;;;4.07;;
7511;SDS011;9999;48.780;9.146;2023-04-09T08:34:12;3.78;;;3.33;;
7511;SDS011;9999;48.780;9.146;2023-04-09T08:36:43;9.20;;;4.30;;
7511;SDS011;9999;48.780;9.146;2023-04-09T08:39:11;6.05;;;4.30;;
7511;SDS011;9999;48.780;9.146;2023-04-09T08:41:40;6.82;;;4.03;;
7511;SDS011;9999;48.780;9.146;2023-04-09T08:44:08;5.13;;;3.35;;
7511;SDS011;9999;48.780;9.146;2023-04-09T08:46:35;4.80;;;3.67;;
7511;SDS011;9999;48.780;9.146;2023-04-09T08:49:03;5.45;;;4.38;;
7511;SDS011;9999;48.780;9.146;2023-04-09T08:51:30;5.72;;;3.80;;
7511;SDS011;9999;48.780;9.146;2023-04-09T08:53:57;5.95;;;4.00;;
7511;SDS011;9999;48.780;9.146;2023-04-09T08:56:25;5.07;;;3.45;;
7511;SDS011;9999;48.780;9.146;2023-04-09T08:58:54;5.57;;;4.10;;
7511;SDS011;9999;48.780;9.146;2023-04-09T09:01:21;5.88;;;3.33;;
7511;SDS011;9999;48.780;9.146;2023-04-09T09:03:53;7.55;;;4.13;;
7511;SDS011;9999;48.780;9.146;2023-04-09T09:06:22;7.47;;;4.35;;
7511;SDS011;9999;48.780;9.146;2023-04-09T09:09:00;6.30;;;3.90;;
7511;SDS011;9999;48.780;9.146;2023-04-09T09:11:28;6.43;;;4.20;;
7511;SDS011;9999;48.780;9.146;2023-04-09T09:14:03;5.13;;;3.38;;
7511;SDS011;9999;48.780;9.146;2023-04-09T09:16:31;5.20;;;3.45;;
7511;SDS011;9999;48.780;9.146;2023-04-09T09:18:59;5.13;;;3.42;;
7511;SDS011;9999;48.780;9.146;2023-04-09T09:21:28;3.30;;;2.95;;
7511;SDS011;9999;48.780;9.146;2023-04-09T09:23:55;5.47;;;3.20;;
7511;SDS011;9999;48.780;9.146;2023-04-09T09:26:22;6.20;;;3.97;;
7511;SDS011;9999;48.780;9.146;2023-04-09T09:28:51;15.68;;;4.18;;
7511;SDS011;9999;48.780;9.146;2023-04-09T09:31:20;6.38;;;3.97;;
7511;SDS011;9999;48.780;9.146;2023-04-09T09:33:50;6.85;;;3.88;;
7511;SDS011;9999;48.780;9.146;2023-04-09T09:36:30;7.45;;;3.83;;
7511;SDS011;9999;48.780;9.146;2023-04-09T09:38:58;6.25;;;3.72;;
7511;SDS011;9999;48.780;9.146;2023-04-09T09:41:28;6.55;;;3.58;;
7511;SDS011;9999;48.780;9.146;2023-04-09T09:43:55;5.75;;;3.58;;
7511;SDS011;9999;48.780;9.146;2023-04-09T09:46:23;3.30;;;2.75;;
7511;SDS011;9999;48.780;9.146;2023-04-09T09:48:51;3.42;;;2.92;;
7511;SDS011;9999;48.780;9.146;2023-04-09T09:51:19;4.25;;;3.22;;
7511;SDS011;9999;48.780;9.146;2023-04-09T09:53:52;4.55;;;3.08;;
7511;SDS011;9999;48.780;9.146;2023-04-09T09:56:21;4.47;;;3.42;;
7511;SDS011;9999;48.780;9.146;2023-04-09T09:58:59;6.70;;;3.83;;
7511;SDS011;9999;48.780;9.146;2023-04-09T10:01:33;4.38;;;3.10;;
7511;SDS011;9999;48.780;9.146;2023-04-09T10:04:00;4.25;;;2.80;;
7511;SDS011;9999;48.780;9.146;2023-04-09T10:06:29;3.25;;;2.58;;
7511;SDS011;9999;48.780;9.146;2023-04-09T10:08:58;3.33;;;2.35;;
7511;SDS011;9999;48.780;9.146;2023-04-09T10:11:29;2.58;;;1.92;;
7511;SDS011;9999;48.780;9.146;2023-04-09T10:13:57;2.25;;;1.98;;
7511;SDS011;9999;48.780;9.146;2023-04-09T10:16:25;4.22;;;2.75;;
7511;SDS011;9999;48.780;9.146;2023-04-09T10:18:53;3.83;;;2.67;;
7511;SDS011;9999;48.780;9.146;2023-04-09T10:21:25;4.80;;;3.05;;
7511;SDS011;9999;48.780;9.146;2023-04-09T10:23:59;3.58;;;2.83;;
7511;SDS011;9999;48.780;9.146;2023-04-09T10:26:31;3.63;;;2.60;;
7511;SDS011;9999;48.780;9.146;2023-04-09T10:29:06;2.50;;;2.25;;
7511;SDS011;9999;48.780;9.146;2023-04-09T10:31:46;3.22;;;2.60;;
7511;SDS011;9999;48.780;9.146;2023-04-09T10:34:34;3.00;;;2.08;;
7511;SDS011;9999;48.780;9.146;2023-04-09T10:37:03;1.83;;;1.50;;
7511;SDS011;9999;48.780;9.146;2023-04-09T10:39:32;2.35;;;2.15;;
7511;SDS011;9999;48.780;9.146;2023-04-09T10:41:59;3.05;;;2.22;;
7511;SDS011;9999;48.780;9.146;2023-04-09T10:44:33;3.00;;;2.22;;
7511;SDS011;9999;48.780;9.146;2023-04-09T10:47:02;3.13;;;2.03;;
7511;SDS011;9999;48.780;9.146;2023-04-09T10:49:35;3.20;;;2.10;;
7511;SDS011;9999;48.780;9.146;2023-04-09T10:52:03;2.50;;;2.25;;
7511;SDS011;9999;48.780;9.146;2023-04-09T10:54:36;3.95;;;2.42;;
7511;SDS011;9999;48.780;9.146;2023-04-09T10:59:51;2.60;;;2.25;;
7511;SDS011;9999;48.780;9.146;2023-04-09T11:02:40;3.47;;;2.33;;
7511;SDS011;9999;48.780;9.146;2023-04-09T11:05:34;2.30;;;2.05;;
7511;SDS011;9999;48.780;9.146;2023-04-09T11:08:06;3.10;;;2.08;;
7511;SDS011;9999;48.780;9.146;2023-04-09T11:10:34;2.50;;;2.03;;
7511;SDS011;9999;48.780;9.146;2023-04-09T11:13:02;4.43;;;2.33;;
7511;SDS011;9999;48.780;9.146;2023-04-09T11:15:30;2.30;;;2.08;;
7511;SDS011;9999;48.780;9.146;2023-04-09T11:17:57;3.95;;;2.83;;
7511;SDS011;9999;48.780;9.146;2023-04-09T11:20:24;3.15;;;2.70;;
7511;SDS011;9999;48.780;9.146;2023-04-09T11:22:53;4.43;;;2.70;;
7511;SDS011;9999;48.780;9.146;2023-04-09T11:25:21;3.03;;;2.38;;
7511;SDS011;9999;48.780;9.146;2023-04-09T11:27:50;3.03;;;2.40;;
7511;SDS011;9999;48.780;9.146;2023-04-09T11:30:17;3.78;;;2.47;;
7511;SDS011;9999;48.780;9.146;2023-04-09T11:32:45;3.53;;;2.70;;
7511;SDS011;9999;48.780;9.146;2023-04-09T11:35:12;2.70;;;2.22;;
7511;SDS011;9999;48.780;9.146;2023-04-09T11:37:40;3.53;;;2.60;;
7511;SDS011;9999;48.780;9.146;2023-04-09T11:40:14;4.10;;;2.60;;
7511;SDS011;9999;48.780;9.146;2023-04-09T11:42:45;3.83;;;2.88;;
7511;SDS011;9999;48.780;9.146;2023-04-09T11:45:14;3.90;;;2.50;;
7511;SDS011;9999;48.780;9.146;2023-04-09T11:47:42;3.83;;;2.70;;
7511;SDS011;9999;48.780;9.146;2023-04-09T11:50:10;5.03;;;3.60;;
7511;SDS011;9999;48.780;9.146;2023-04-09T11:52:38;2.92;;;2.63;;
7511;SDS011;9999;48.780;9.146;2023-04-09T11:55:06;3.75;;;3.10;;
7511;SDS011;9999;48.780;9.146;2023-04-09T11:57:40;3.47;;;2.85;;
7511;SDS011;9999;48.780;9.146;2023-04-09T12:00:08;2.88;;;2.60;;
7511;SDS011;9999;48.780;9.146;2023-04-09T12:02:37;4.00;;;2.53;;
7511;SDS011;9999;48.780;9.146;2023-04-09T12:05:06;3.30;;;2.80;;
7511;SDS011;9999;48.780;9.146;2023-04-09T12:07:34;3.50;;;2.70;;
7511;SDS011;9999;48.780;9.146;2023-04-09T12:10:03;3.10;;;2.80;;
7511;SDS011;9999;48.780;9.146;2023-04-09T12:12:31;3.88;;;2.55;;
7511;SDS011;9999;48.780;9.146;2023-04-09T12:15:11;6.20;;;3.25;;
7511;SDS011;9999;48.780;9.146;2023-04-09T12:17:45;4.45;;;2.78;;
7511;SDS011;9999;48.780;9.146;2023-04-09T12:20:26;4.00;;;2.90;;
7511;SDS011;9999;48.780;9.146;2023-04-09T12:22:54;4.03;;;2.33;;
7511;SDS011;9999;48.780;9.146;2023-04-09T12:25:21;3.25;;;2.92;;
7511;SDS011;9999;48.780;9.146;2023-04-09T12:27:49;3.33;;;2.53;;
7511;SDS011;9999;48.780;9.146;2023-04-09T12:30:16;3.65;;;2.92;;
7511;SDS011;9999;48.780;9.146;2023-04-09T12:32:43;2.95;;;2.28;;
7511;SDS011;9999;48.780;9.146;2023-04-09T12:35:10;4.43;;;2.70;;
7511;SDS011;9999;48.780;9.146;2023-04-09T12:37:38;3.83;;;2.78;;
7511;SDS011;9999;48.780;9.146;2023-04-09T12:40:05;4.00;;;2.33;;
7511;SDS011;9999;48.780;9.146;2023-04-09T12:42:33;3.45;;;2.35;;
7511;SDS011;9999;48.780;9.146;2023-04-09T12:45:01;3.55;;;2.53;;
7511;SDS011;9999;48.780;9.146;2023-04-09T12:47:28;3.72;;;2.20;;
7511;SDS011;9999;48.780;9.146;2023-04-09T12:49:54;2.35;;;1.88;;
7511;SDS011;9999;48.780;9.146;2023-04-09T12:52:21;2.58;;;2.33;;
7511;SDS011;9999;48.780;9.146;2023-04-09T12:54:49;2.85;;;2.35;;
7511;SDS011;9999;48.780;9.146;2023-04-09T12:57:15;3.60;;;2.92;;
7511;SDS011;9999;48.780;9.146;2023-04-09T12:59:42;3.72;;;2.70;;
7511;SDS011;9999;48.780;9.146;2023-04-09T13:02:11;3.88;;;2.63;;
7511;SDS011;9999;48.780;9.146;2023-04-09T13:04:37;3.15;;;1.90;;
7511;SDS011;9999;48.780;9.146;2023-04-09T13:07:04;3.13;;;2.40;;
7511;SDS011;9999;48.780;9.146;2023-04-09T13:09:31;3.58;;;2.50;;
7511;SDS011;9999;48.780;9.146;2023-04-09T13:11:59;3.25;;;2.50;;
7511;SDS011;9999;48.780;9.146;2023-04-09T13:14:26;3.92;;;2.28;;
7511;SDS011;9999;48.780;9.146;2023-04-09T13:16:53;2.08;;;1.88;;
7511;SDS011;9999;48.780;9.146;2023-04-09T13:19:21;2.38;;;2.13;;
7511;SDS011;9999;48.780;9.146;2023-04-09T13:21:47;3.88;;;2.70;;
7511;SDS011;9999;48.780;9.146;2023-04-09T13:24:14;3.33;;;2.80;;
7511;SDS011;9999;48.780;9.146;2023-04-09T13:26:43;2.00;;;1.75;;
7511;SDS011;9999;48.780;9.146;2023-04-09T13:29:10;2.53;;;2.17;;
7511;SDS011;9999;48.780;9.146;2023-04-09T13:31:37;2.60;;;2.40;;
7511;SDS011;9999;48.780;9.146;2023-04-09T13:34:03;3.53;;;2.33;;
7511;SDS011;9999;48.780;9.146;2023-04-09T13:36:32;5.18;;;2.85;;
7511;SDS011;9999;48.780;9.146;2023-04-09T13:38:59;2.60;;;2.40;;
7511;SDS011;9999;48.780;9.146;2023-04-09T13:41:28;2.65;;;2.33;;
7511;SDS011;9999;48.780;9.146;2023-04-09T13:43:56;4.93;;;2.60;;
7511;SDS011;9999;48.780;9.146;2023-04-09T13:46:23;3.50;;;2.33;;
7511;SDS011;9999;48.780;9.146;2023-04-09T13:48:49;2.60;;;2.05;;
7511;SDS011;9999;48.780;9.146;2023-04-09T13:51:16;2.25;;;2.05;;
7511;SDS011;9999;48.780;9.146;2023-04-09T13:53:44;2.20;;;1.98;;
7511;SDS011;9999;48.780;9.146;2023-04-09T13:56:12;1.88;;;1.77;;
7511;SDS011;9999;48.780;9.146;2023-04-09T13:58:39;2.80;;;2.45;;
7511;SDS011;9999;48.780;9.146;2023-04-09T14:01:05;2.70;;;2.47;;
7511;SDS011;9999;48.780;9.146;2023-04-09T14:03:32;4.35;;;2.30;;
7511;SDS011;9999;48.780;9.146;2023-04-09T14:06:02;2.15;;;1.98;;
7511;SDS011;9999;48.780;9.146;2023-04-09T14:08:29;3.08;;;2.30;;
7511;SDS011;9999;48.780;9.146;2023-04-09T14:10:57;2.08;;;1.83;;
7511;SDS011;9999;48.780;9.146;2023-04-09T14:13:24;2.47;;;2.25;;
7511;SDS011;9999;48.780;9.146;2023-04-09T14:15:50;2.20;;;1.98;;
7511;SDS011;9999;48.780;9.146;2023-04-09T14:18:17;2.72;;;2.00;;
7511;SDS011;9999;48.780;9.146;2023-04-09T14:20:44;2.35;;;2.15;;
7511;SDS011;9999;48.780;9.146;2023-04-09T14:23:11;2.53;;;2.13;;
7511;SDS011;9999;48.780;9.146;2023-04-09T14:25:37;2.33;;;2.05;;
7511;SDS011;9999;48.780;9.146;2023-04-09T14:28:05;2.58;;;1.90;;
7511;SDS011;9999;48.780;9.146;2023-04-09T14:30:32;2.22;;;1.77;;
7511;SDS011;9999;48.780;9.146;2023-04-09T14:32:59;2.63;;;2.05;;
7511;SDS011;9999;48.780;9.146;2023-04-09T14:35:26;4.03;;;2.33;;
7511;SDS011;9999;48.780;9.146;2023-04-09T14:37:53;4.05;;;3.20;;
7511;SDS011;9999;48.780;9.146;2023-04-09T14:40:20;2.80;;;2.10;;
7511;SDS011;9999;48.780;9.146;2023-04-09T14:42:47;2.65;;;2.20;;
7511;SDS011;9999;48.780;9.146;2023-04-09T14:45:15;4.18;;;2.70;;
7511;SDS011;9999;48.780;9.146;2023-04-09T14:47:42;2.35;;;1.85;;
7511;SDS011;9999;48.780;9.146;2023-04-09T14:50:09;2.47;;;2.10;;
7511;SDS011;9999;48.780;9.146;2023-04-09T14:52:37;3.45;;;2.63;;
7511;SDS011;9999;48.780;9.146;2023-04-09T14:55:04;2.42;;;2.20;;
7511;SDS011;9999;48.780;9.146;2023-04-09T14:57:36;3.33;;;2.75;;
7511;SDS011;9999;48.780;9.146;2023-04-09T15:00:04;2.75;;;2.35;;
7511;SDS011;9999;48.780;9.146;2023-04-09T15:02:33;2.50;;;1.63;;
7511;SDS011;9999;48.780;9.146;2023-04-09T15:05:00;2.95;;;2.63;;
7511;SDS011;9999;48.780;9.146;2023-04-09T15:07:27;4.30;;;2.63;;
7511;SDS011;9999;48.780;9.146;2023-04-09T15:09:55;2.92;;;2.10;;
7511;SDS011;9999;48.780;9.146;2023-04-09T15:12:23;3.88;;;2.78;;
7511;SDS011;9999;48.780;9.146;2023-04-09T15:14:50;3.28;;;2.10;;
7511;SDS011;9999;48.780;9.146;2023-04-09T15:17:17;3.03;;;2.50;;
7511;SDS011;9999;48.780;9.146;2023-04-09T15:19:46;2.47;;;2.28;;
7511;SDS011;9999;48.780;9.146;2023-04-09T15:22:12;3.47;;;2.60;;
7511;SDS011;9999;48.780;9.146;2023-04-09T15:24:40;3.40;;;2.20;;
7511;SDS011;9999;48.780;9.146;2023-04-09T15:27:07;3.30;;;2.45;;